Harmony, Minnesota
Current Conditions -  °F | °C
As of 7:35 AM on Saturday 20 Dec 2014 (Local Time) from KFKA Reporting Station
Haze Haze  
Wind Chill: 20°   Ceiling: 300
Heat Index: 26°   Visibility: 2mi
Dew Point: 25°   Wind: 6mph
Humidity: 96%   Direction: 160°SSE
Pressure: 30.18"   Gusts: NA
Location:  43.56°N, 92.01°W
Report Text: KFKA 201335Z AUTO 16005KT 2SM BR OVC003 M03/M04 A3018 RMK AO2 T10311037
Loading
Personal Weather Stations






























Interactive Weather Map New forecast layout! Learn more

10-Day Weather Forecast

Advertisements
Track Severe Weather on mobile